Huntington, MA (01050)

3:42 PM EDT on May 22, 2015 (GMT -0400)
Huntington, MA | | Change Station
CLOSE
Current Station
Personal Weather Station
Location: Huntington, MA
Elevation: 1050 ft
Nearby Weather Stations

Elev 1050 ft 42.26 °N, 72.85 °W | Updated 9 seconds ago

Partly Cloudy
Partly Cloudy
65.2 °F
Feels Like 65.2 °F
N
9.0
Wind Variable Wind from NNE
Gusts 10.0 mph

Today
High -- | Low -- °F
--% Chance of Precip.
Yesterday
High -- | Low -- °F
Precip. -- in
5:24 AM 8:12 PM
Waxing Crescent, 23% visible
Pressure 29.86 in
Visibility 10.0 miles
Clouds Few 9000 ft
Dew Point 37 °F
Humidity 35%
Rainfall 0.00 in
Snow Depth Not available.
UV 8 out of 12
Pollen 9.30 out of 12
Air Quality Not available.
Flu Activity Widespread
METAR KBAF 221853Z 30019G26KT 10SM FEW090 22/M01 A2986 RMK AO2 PK WND 32030/1801 SLP112 T02221011

More Conditions Fewer Conditions

Pressure 29.86 in
Visibility 10.0 miles
Clouds Few 9000 ft
Dew Point 37 °F
Humidity 35%
Rainfall 0.00 in
Snow Depth Not available.
UV 8 out of 12
Pollen 9.30 out of 12
Air Quality Not available.
Flu Activity Widespread
METAR KBAF 221853Z 30019G26KT 10SM FEW090 22/M01 A2986 RMK AO2 PK WND 32030/1801 SLP112 T02221011

More Conditions Fewer Conditions

10-Day Weather Forecast

Almanac

Astronomy

May. 22, 2015 Rise Set
Actual Time
Civil Twilight
Nautical Twilight
Astronomical Twilight
Moon
Length of Visible Light
Length of Day
Tomorrow will be .
, % of the Moon is Illuminated

Today's Extremes

State Highs State Lows

Community

WunderPhotos

Upload Photos

1,823,279 photos uploaded!

WunderBlogs® & News

Nearby

Air Quality

  Air Quality AQ Index Pollutant
Not available.

Snow Depth

Station Depth Elevation

Earthquake Activity

City Distance Mag. Time & Date
Minimum magnitude displayed is 2.5.

Coastal Water Temperatures

Place Temperature

Stations

Nearby Weather Stations

Station Location Temp. Windchill Dew Point Humidity Wind Precip. Elev Updated Type